Calumet, IA (51009)

10:30 AM CST del 03 Marzo 2015 (GMT -0600)
Cherokee Municipal | Change Station
CLOSE
Current Station
Aeroporto
Location: Cherokee,
Altitudine: 1227 ft
Stazioni meteo nelle vicinanze

Alt. 1227 ft 42.73 °N, 95.56 °W | Updated 15 minutes ago

Coperto
Coperto
31 °F
Sembra 21 °F
N
13
Vento Variabile Vento da NO
Gusts 20 mph

Oggi
Massima -- | Minima -- °F
--% Possibilità di precip.
Ieri
Massima -- | Minima -- °F
Precip. -- in
6:55 AM 6:13 PM
Gobba a ponente, 96% visible
Pressione 29.73 in
Visibilità 7.0 miglia
Nuvole Coperto 1600 ft
Raffreddamento del vento 21 °F
Punto di rugiada 28 °F
Umidità 88%
Piovosità 0.00 in
Spessore del manto nevoso Non disponibile.
Raggi UV 1 fuori da 12
Polline .50 fuori da 12
Qualità dell'aria Non disponibile.
Flu Activity Non disponibile.
METAR KCKP 031615Z AUTO 31011G17KT 7SM OVC016 M01/M02 A2973 RMK AO2 T10071024

More Conditions Fewer Conditions

Pressione 29.73 in
Visibilità 7.0 miglia
Nuvole Coperto 1600 ft
Raffreddamento del vento 21 °F
Punto di rugiada 28 °F
Umidità 88%
Piovosità 0.00 in
Spessore del manto nevoso Non disponibile.
Raggi UV 1 fuori da 12
Polline .50 fuori da 12
Qualità dell'aria Non disponibile.
Flu Activity Non disponibile.
METAR KCKP 031615Z AUTO 31011G17KT 7SM OVC016 M01/M02 A2973 RMK AO2 T10071024

More Conditions Fewer Conditions

10-Day Weather Forecast

Almanac

Astronomia

Mar. 03, 2015 Alba Tramonto
Ora attuale
Crepuscolo civile
Crepuscolo nautico
Crepuscolo astronomico
Luna
Estensione della luce visibile
Lunghezza del giorno
Tomorrow will be .
, % of the Moon is Illuminated

Gli estremi di oggi

State Highs State Lows

Community

WunderPhotos

Upload Photos

1,802,164 foto caricate!

WunderBlogs® & News

Nearby

Qualità dell'aria

  Qualità dell'aria Indice AQ Inquinante
Not available.

Profondità neve

Stazione Profondità Altitudine

Attività sismica

Città  Distanza Mag. Data & Ora
Minimo Magnitudo Mostrato è 2.5.

Temperature delle acque costiere

Località Temperatura

Stazioni meteo nelle vicinanze